createdAt,value
2019-02-07T00:00:14.717Z,104.83
2019-02-07T00:02:43.345Z,94.77
2019-02-07T00:05:12.341Z,95.23
2019-02-07T00:07:40.655Z,74.40
2019-02-07T00:10:15.564Z,96.17
2019-02-07T00:12:44.251Z,97.00
2019-02-07T00:15:14.297Z,102.78
2019-02-07T00:17:42.952Z,97.50
2019-02-07T00:20:19.689Z,96.50
2019-02-07T00:22:48.120Z,82.77
2019-02-07T00:25:16.550Z,100.80
2019-02-07T00:27:44.861Z,92.73
2019-02-07T00:30:23.349Z,105.13
2019-02-07T00:32:51.801Z,81.33
2019-02-07T00:35:20.574Z,85.80
2019-02-07T00:37:49.369Z,77.27
2019-02-07T00:40:19.332Z,90.07
2019-02-07T00:42:48.283Z,80.53
2019-02-07T00:45:18.048Z,80.07
2019-02-07T00:47:46.491Z,79.23
2019-02-07T00:50:17.471Z,70.65
2019-02-07T00:52:45.949Z,70.95
2019-02-07T00:55:16.017Z,72.23
2019-02-07T00:57:45.221Z,72.12
2019-02-07T01:00:25.486Z,70.70
2019-02-07T01:02:54.175Z,56.80
2019-02-07T01:05:23.758Z,76.07
2019-02-07T01:07:52.531Z,88.37
2019-02-07T01:10:24.166Z,98.80
2019-02-07T01:12:52.620Z,70.07
2019-02-07T01:15:21.803Z,76.35
2019-02-07T01:17:50.185Z,70.90
2019-02-07T01:20:18.860Z,66.70
2019-02-07T01:22:47.256Z,63.80
2019-02-07T01:25:22.011Z,79.00
2019-02-07T01:27:50.465Z,74.30
2019-02-07T01:30:24.343Z,76.45
2019-02-07T01:32:53.126Z,73.67
2019-02-07T01:35:21.911Z,68.93
2019-02-07T01:37:50.668Z,73.50
2019-02-07T01:40:21.044Z,81.73
2019-02-07T01:42:49.820Z,78.03
2019-02-07T01:45:20.855Z,67.20
2019-02-07T01:47:49.874Z,77.03
2019-02-07T01:50:20.700Z,69.67
2019-02-07T01:52:49.650Z,80.50
2019-02-07T01:55:18.206Z,80.00
2019-02-07T01:57:47.245Z,59.93
2019-02-07T02:00:17.594Z,79.57
2019-02-07T02:02:46.185Z,79.43
2019-02-07T02:05:21.017Z,80.03
2019-02-07T02:07:50.745Z,72.23
2019-02-07T02:10:28.009Z,75.47
2019-02-07T02:12:56.679Z,70.23
2019-02-07T02:15:25.431Z,74.17
2019-02-07T02:17:53.984Z,71.00
2019-02-07T02:20:26.308Z,78.37
2019-02-07T02:22:56.425Z,68.37
2019-02-07T02:25:25.755Z,74.37
2019-02-07T02:27:54.454Z,64.77
2019-02-07T02:30:37.066Z,77.43
2019-02-07T02:33:06.054Z,91.57
2019-02-07T02:35:34.434Z,86.37
2019-02-07T02:38:02.757Z,65.47
2019-02-07T02:40:31.148Z,76.80
2019-02-07T02:42:59.933Z,74.57
2019-02-07T02:45:37.229Z,72.27
2019-02-07T02:47:58.717Z,76.07
2019-02-07T02:50:27.103Z,73.57
2019-02-07T02:52:55.584Z,72.43
2019-02-07T02:55:28.281Z,64.90
2019-02-07T02:57:56.677Z,77.03
2019-02-07T03:00:41.678Z,89.97
2019-02-07T03:03:20.443Z,103.20
2019-02-07T03:05:59.003Z,100.27
2019-02-07T03:08:34.983Z,86.92
2019-02-07T03:11:13.755Z,92.17
2019-02-07T03:13:46.474Z,81.80
2019-02-07T03:16:16.431Z,81.13
2019-02-07T03:18:46.476Z,92.27
2019-02-07T03:21:33.106Z,78.83
2019-02-07T03:24:05.895Z,84.23
2019-02-07T03:26:47.836Z,78.10
2019-02-07T03:29:32.539Z,75.93
2019-02-07T03:32:18.568Z,71.00
2019-02-07T03:34:53.989Z,65.77
2019-02-07T03:37:24.384Z,74.27
2019-02-07T03:39:57.591Z,70.05
2019-02-07T03:42:36.538Z,78.93
2019-02-07T03:45:25.796Z,60.23
2019-02-07T03:48:04.681Z,62.65
2019-02-07T03:50:51.116Z,81.30
2019-02-07T03:53:26.837Z,59.87
2019-02-07T03:56:13.085Z,75.22
2019-02-07T03:58:45.812Z,64.90
2019-02-07T04:01:18.889Z,75.60
2019-02-07T04:03:52.466Z,70.67
2019-02-07T04:06:28.723Z,57.43
2019-02-07T04:09:10.723Z,72.32
2019-02-07T04:11:40.674Z,61.53
2019-02-07T04:14:14.045Z,70.57
2019-02-07T04:16:47.039Z,83.33
2019-02-07T04:19:17.060Z,74.03
2019-02-07T04:22:02.858Z,79.65
2019-02-07T04:24:41.974Z,76.10
2019-02-07T04:27:28.587Z,75.53
2019-02-07T04:29:58.913Z,88.23
2019-02-07T04:32:45.805Z,60.53
2019-02-07T04:35:27.820Z,84.80
2019-02-07T04:37:57.797Z,89.97
2019-02-07T04:40:30.812Z,94.90
2019-02-07T04:43:01.065Z,67.35
2019-02-07T04:45:33.864Z,57.03
2019-02-07T04:48:15.854Z,52.60
2019-02-07T04:50:46.283Z,49.70
2019-02-07T04:53:28.203Z,56.90
2019-02-07T04:55:58.148Z,51.20
2019-02-07T04:58:42.846Z,61.63
2019-02-07T05:01:15.499Z,54.30
2019-02-07T05:03:51.049Z,67.57
2019-02-07T05:06:27.064Z,67.40
2019-02-07T05:09:09.031Z,58.80
2019-02-07T05:11:47.771Z,63.33
2019-02-07T05:14:29.972Z,78.28
2019-02-07T05:16:59.954Z,67.83
2019-02-07T05:19:33.181Z,65.13
2019-02-07T05:22:03.135Z,64.10
2019-02-07T05:24:33.175Z,62.88
2019-02-07T05:30:11.264Z,66.63
2019-02-07T05:32:56.153Z,72.37
2019-02-07T05:35:42.059Z,64.80
2019-02-07T05:38:23.595Z,67.17
2019-02-07T05:41:03.025Z,72.07
2019-02-07T05:43:33.046Z,74.67
2019-02-07T05:46:05.983Z,65.78
2019-02-07T05:48:38.897Z,64.87
2019-02-07T05:51:08.958Z,66.00
2019-02-07T05:53:50.875Z,70.87
2019-02-07T05:56:30.542Z,61.20
2019-02-07T05:59:05.968Z,65.87
2019-02-07T06:01:35.987Z,62.47
2019-02-07T06:04:06.733Z,67.30
2019-02-07T06:06:37.365Z,67.27
2019-02-07T06:09:12.572Z,77.25
2019-02-07T06:11:42.522Z,59.27
2019-02-07T06:14:28.550Z,65.08
2019-02-07T06:17:17.529Z,55.03
2019-02-07T06:19:47.501Z,62.67
2019-02-07T06:22:20.135Z,72.93
2019-02-07T06:25:08.128Z,65.50
2019-02-07T06:27:40.897Z,66.60
2019-02-07T06:30:14.022Z,62.87
2019-02-07T06:33:00.082Z,68.65
2019-02-07T06:35:30.053Z,70.87
2019-02-07T06:38:08.888Z,58.02
2019-02-07T06:40:53.836Z,97.63
2019-02-07T06:43:27.233Z,67.27
2019-02-07T06:46:02.659Z,63.20
2019-02-07T06:48:32.637Z,64.50
2019-02-07T06:51:08.271Z,76.07
2019-02-07T06:53:43.833Z,64.00
2019-02-07T06:56:13.881Z,61.50
2019-02-07T06:58:46.801Z,56.97
2019-02-07T07:01:19.792Z,71.47
2019-02-07T07:03:49.766Z,60.80
2019-02-07T07:06:20.291Z,61.60
2019-02-07T07:08:56.271Z,57.00
2019-02-07T07:11:35.264Z,60.10
2019-02-07T07:14:05.239Z,68.93
2019-02-07T07:16:35.507Z,59.40
2019-02-07T07:19:06.251Z,60.45
2019-02-07T07:21:38.700Z,70.93
2019-02-07T07:24:20.503Z,65.90
2019-02-07T07:26:50.454Z,65.77
2019-02-07T07:29:37.138Z,65.20
2019-02-07T07:32:16.294Z,57.33
2019-02-07T07:34:45.349Z,76.37
2019-02-07T07:37:18.495Z,66.80
2019-02-07T07:40:04.678Z,71.83
2019-02-07T07:42:43.810Z,65.27
2019-02-07T07:45:32.228Z,70.73
2019-02-07T07:48:18.265Z,70.07
2019-02-07T07:51:05.034Z,70.67
2019-02-07T07:53:40.895Z,66.60
2019-02-07T07:56:13.693Z,73.77
2019-02-07T07:58:43.651Z,64.63
2019-02-07T08:01:14.028Z,67.70
2019-02-07T08:03:43.978Z,68.40
2019-02-07T08:06:16.724Z,71.40
2019-02-07T08:08:49.206Z,76.40
2019-02-07T08:11:25.482Z,51.73
2019-02-07T08:14:10.737Z,69.87
2019-02-07T08:16:59.109Z,74.80
2019-02-07T08:19:44.605Z,72.40
2019-02-07T08:22:17.939Z,62.48
2019-02-07T08:24:47.854Z,67.17
2019-02-07T08:27:18.135Z,69.53
2019-02-07T08:29:51.057Z,71.60
2019-02-07T08:32:24.500Z,64.23
2019-02-07T08:35:10.923Z,58.73
2019-02-07T08:37:52.777Z,70.75
2019-02-07T08:40:31.360Z,65.00
2019-02-07T08:43:12.983Z,68.23
2019-02-07T08:45:45.635Z,66.70
2019-02-07T08:48:25.462Z,74.03
2019-02-07T08:51:01.417Z,55.10
2019-02-07T08:53:40.090Z,65.53
2019-02-07T08:56:16.164Z,70.72
2019-02-07T08:58:46.107Z,66.20
2019-02-07T09:01:18.665Z,59.20
2019-02-07T09:03:48.639Z,73.93
2019-02-07T09:06:30.992Z,74.47
2019-02-07T09:09:16.623Z,74.57
2019-02-07T09:11:52.511Z,69.87
2019-02-07T09:14:22.465Z,69.93
2019-02-07T09:17:08.006Z,65.75
2019-02-07T09:19:44.034Z,67.97
2019-02-07T09:22:16.765Z,61.77
2019-02-07T09:24:58.579Z,71.00
2019-02-07T09:27:34.119Z,67.77
2019-02-07T09:30:13.037Z,74.82
2019-02-07T09:32:43.081Z,70.20
2019-02-07T09:35:13.592Z,68.87
2019-02-07T09:38:00.123Z,78.67
2019-02-07T09:40:32.530Z,64.10
2019-02-07T09:43:05.540Z,64.43
2019-02-07T09:45:35.481Z,58.23
2019-02-07T09:48:21.404Z,58.63
2019-02-07T09:50:55.413Z,63.63
2019-02-07T09:53:38.533Z,67.35
2019-02-07T09:56:08.633Z,69.80
2019-02-07T09:58:50.543Z,70.30
2019-02-07T10:01:26.372Z,70.93
2019-02-07T10:03:56.702Z,60.80
2019-02-07T10:06:27.761Z,64.33
2019-02-07T10:08:57.844Z,53.77
2019-02-07T10:11:31.692Z,58.58
2019-02-07T10:14:18.328Z,56.47
2019-02-07T10:16:48.262Z,61.20
2019-02-07T10:19:23.845Z,60.77
2019-02-07T10:21:53.875Z,65.85
2019-02-07T10:24:39.685Z,60.30
2019-02-07T10:27:10.084Z,69.47
2019-02-07T10:29:40.044Z,67.03
2019-02-07T10:32:18.927Z,62.20
2019-02-07T10:35:03.945Z,64.63
2019-02-07T10:37:39.558Z,58.00
2019-02-07T10:40:17.938Z,78.70
2019-02-07T10:42:51.113Z,67.63
2019-02-07T10:45:23.845Z,65.73
2019-02-07T10:48:08.817Z,76.03
2019-02-07T10:50:38.765Z,77.20
2019-02-07T10:53:14.863Z,69.07
2019-02-07T10:56:00.166Z,82.37
2019-02-07T10:58:46.020Z,67.53
2019-02-07T11:01:25.047Z,79.20
2019-02-07T11:04:05.003Z,77.53
2019-02-07T11:06:46.582Z,69.87
2019-02-07T11:09:22.537Z,76.30
2019-02-07T11:11:52.539Z,64.90
2019-02-07T11:14:25.173Z,71.10
2019-02-07T11:16:55.432Z,73.07
2019-02-07T11:19:43.227Z,81.50
2019-02-07T11:22:15.817Z,75.77
2019-02-07T11:24:51.884Z,71.27
2019-02-07T11:27:21.844Z,78.40
2019-02-07T11:29:51.841Z,64.97
2019-02-07T11:32:25.156Z,60.03
2019-02-07T11:35:10.006Z,68.37
2019-02-07T11:37:49.059Z,73.97
2019-02-07T11:40:37.060Z,76.12
2019-02-07T11:43:23.552Z,61.87
2019-02-07T11:45:56.158Z,74.33
2019-02-07T11:48:26.501Z,72.40
2019-02-07T11:51:01.922Z,67.40
2019-02-07T11:53:49.984Z,65.83
2019-02-07T11:56:20.003Z,73.70
2019-02-07T11:58:50.437Z,79.15
2019-02-07T12:01:29.580Z,72.83
2019-02-07T12:04:15.674Z,58.37
2019-02-07T12:06:52.091Z,69.40
2019-02-07T12:09:30.757Z,75.97
2019-02-07T12:12:12.725Z,68.17
2019-02-07T12:14:58.925Z,76.23
2019-02-07T12:17:41.172Z,79.83
2019-02-07T12:20:19.868Z,87.10
2019-02-07T12:23:06.793Z,73.00
2019-02-07T12:25:42.976Z,67.47
2019-02-07T12:28:15.687Z,70.63
2019-02-07T12:31:01.947Z,75.77
2019-02-07T12:33:48.259Z,68.13
2019-02-07T12:36:24.168Z,73.03
2019-02-07T12:38:57.423Z,81.05
2019-02-07T12:41:30.207Z,77.90
2019-02-07T12:44:02.520Z,59.63
2019-02-07T12:46:35.201Z,62.13
2019-02-07T12:49:11.429Z,75.57
2019-02-07T12:51:41.384Z,63.60
2019-02-07T12:54:14.118Z,78.43
2019-02-07T12:57:02.139Z,62.17
2019-02-07T12:59:32.825Z,82.20
2019-02-07T13:02:17.601Z,61.00
2019-02-07T13:04:56.165Z,75.03
2019-02-07T13:07:37.797Z,76.73
2019-02-07T13:10:29.195Z,66.20
2019-02-07T13:12:59.207Z,67.60
2019-02-07T13:15:29.209Z,76.10
2019-02-07T13:18:02.055Z,74.92
2019-02-07T13:20:47.214Z,58.80
2019-02-07T13:23:23.069Z,70.30
2019-02-07T13:25:59.650Z,69.17
2019-02-07T13:28:32.359Z,69.77
2019-02-07T13:31:02.340Z,68.03
2019-02-07T13:33:32.367Z,72.70
2019-02-07T13:36:08.066Z,66.67
2019-02-07T13:38:40.472Z,61.53
2019-02-07T13:41:22.434Z,70.90
2019-02-07T13:43:52.599Z,72.73
2019-02-07T13:46:22.688Z,71.30
2019-02-07T13:48:53.106Z,61.50
2019-02-07T13:51:23.051Z,85.00
2019-02-07T13:54:08.992Z,63.40
2019-02-07T13:56:57.261Z,60.80
2019-02-07T13:59:45.632Z,56.77
2019-02-07T14:02:31.566Z,67.10
2019-02-07T14:05:17.646Z,66.95
2019-02-07T14:08:03.801Z,62.23
2019-02-07T14:10:39.872Z,67.33
2019-02-07T14:13:18.948Z,62.67
2019-02-07T14:15:48.984Z,64.47
2019-02-07T14:18:33.712Z,56.93
2019-02-07T14:21:09.528Z,54.98
2019-02-07T14:23:48.273Z,65.90
2019-02-07T14:26:26.861Z,63.13
2019-02-07T14:29:00.065Z,67.60
2019-02-07T14:31:30.082Z,73.37
2019-02-07T14:34:12.068Z,63.80
2019-02-07T14:36:56.969Z,65.50
2019-02-07T14:39:29.844Z,74.33
2019-02-07T14:42:02.730Z,75.23
2019-02-07T14:44:35.601Z,67.80
2019-02-07T14:47:03.907Z,74.40
2019-02-07T14:49:32.209Z,86.97
2019-02-07T14:52:00.538Z,68.02
2019-02-07T14:54:28.841Z,74.30
2019-02-07T14:56:57.230Z,68.03
2019-02-07T14:59:25.905Z,83.63
2019-02-07T15:01:54.233Z,66.40
2019-02-07T15:04:22.608Z,77.47
2019-02-07T15:06:51.480Z,63.83
2019-02-07T15:09:20.360Z,77.23
2019-02-07T15:11:48.936Z,68.03
2019-02-07T15:14:17.317Z,73.70
2019-02-07T15:16:45.639Z,64.70
2019-02-07T15:19:14.033Z,74.70
2019-02-07T15:21:42.412Z,67.87
2019-02-07T15:24:11.089Z,79.15
2019-02-07T15:26:39.457Z,71.37
2019-02-07T15:29:08.351Z,83.80
2019-02-07T15:31:36.649Z,84.40
2019-02-07T15:34:05.510Z,73.47
2019-02-07T15:36:33.882Z,70.80
2019-02-07T15:39:02.860Z,74.63
2019-02-07T15:41:31.238Z,67.67
2019-02-07T15:43:59.569Z,77.03
2019-02-07T15:46:27.942Z,88.05
2019-02-07T15:48:56.265Z,80.47
2019-02-07T15:51:24.636Z,97.40
2019-02-07T15:53:53.034Z,78.17
2019-02-07T15:56:22.051Z,84.20
2019-02-07T15:58:54.794Z,80.57
2019-02-07T16:01:27.549Z,88.23
2019-02-07T16:03:57.531Z,83.00
2019-02-07T16:06:25.830Z,99.73
2019-02-07T16:08:54.615Z,93.60
2019-02-07T16:11:22.922Z,79.32
2019-02-07T16:13:51.280Z,78.17
2019-02-07T16:16:19.742Z,91.50
2019-02-07T16:18:48.178Z,85.60
2019-02-07T16:21:16.478Z,88.95
2019-02-07T16:23:44.883Z,67.43
2019-02-07T16:26:14.894Z,78.00
2019-02-07T16:28:43.412Z,88.60
2019-02-07T16:31:12.078Z,74.83
2019-02-07T16:33:40.487Z,89.58
2019-02-07T16:36:09.061Z,82.47
2019-02-07T16:38:37.374Z,70.90
2019-02-07T16:41:06.260Z,112.60
2019-02-07T16:43:34.636Z,86.37
2019-02-07T16:46:03.037Z,87.93
2019-02-07T16:48:31.337Z,92.50
2019-02-07T16:51:00.634Z,89.37
2019-02-07T16:53:28.954Z,82.45
2019-02-07T16:55:57.374Z,79.53
2019-02-07T16:58:26.136Z,84.37
2019-02-07T17:00:54.807Z,100.90
2019-02-07T17:03:23.384Z,93.57
2019-02-07T17:05:51.773Z,90.90
2019-02-07T17:08:20.154Z,95.00
2019-02-07T17:10:48.545Z,88.33
2019-02-07T17:13:18.084Z,84.13
2019-02-07T17:15:46.583Z,101.60
2019-02-07T17:18:14.889Z,88.87
2019-02-07T17:20:43.218Z,87.80
2019-02-07T17:23:11.531Z,87.30
2019-02-07T17:25:40.101Z,101.23
2019-02-07T17:28:08.864Z,115.33
2019-02-07T17:30:37.767Z,89.30
2019-02-07T17:33:06.146Z,95.43
2019-02-07T17:35:34.940Z,89.70
2019-02-07T17:38:03.622Z,76.90
2019-02-07T17:40:32.017Z,83.30
2019-02-07T17:43:00.333Z,82.67
2019-02-07T17:45:30.714Z,94.35
2019-02-07T17:47:59.200Z,105.80
2019-02-07T17:50:36.493Z,93.80
2019-02-07T17:53:10.257Z,98.50
2019-02-07T17:55:38.616Z,98.27
2019-02-07T17:58:08.387Z,81.20
2019-02-07T18:00:54.082Z,96.50
2019-02-07T18:03:22.767Z,87.30
2019-02-07T18:05:51.230Z,77.10
2019-02-07T18:08:19.702Z,92.77
2019-02-07T18:10:48.852Z,91.32
2019-02-07T18:13:17.220Z,77.23
2019-02-07T18:15:45.620Z,91.03
2019-02-07T18:18:14.002Z,94.53
2019-02-07T18:20:42.307Z,87.40
2019-02-07T18:23:10.711Z,91.47
2019-02-07T18:25:39.186Z,81.57
2019-02-07T18:28:08.054Z,82.20
2019-02-07T18:30:36.501Z,79.57
2019-02-07T18:33:04.905Z,73.50
2019-02-07T18:35:33.209Z,92.23
2019-02-07T18:38:01.607Z,90.10
2019-02-07T18:40:31.718Z,88.50
2019-02-07T18:43:00.595Z,112.87
2019-02-07T18:45:29.870Z,82.27
2019-02-07T18:47:58.260Z,81.60
2019-02-07T18:50:31.919Z,84.07
2019-02-07T18:53:00.241Z,113.23
2019-02-07T18:55:28.687Z,80.55
2019-02-07T18:57:57.159Z,91.67
2019-02-07T19:00:28.643Z,100.33
2019-02-07T19:02:56.966Z,94.53
2019-02-07T19:05:25.334Z,72.47
2019-02-07T19:07:54.414Z,95.93
2019-02-07T19:10:24.961Z,89.23
2019-02-07T19:12:53.738Z,83.00
2019-02-07T19:15:27.989Z,97.93
2019-02-07T19:17:56.744Z,82.02
2019-02-07T19:20:25.222Z,95.07
2019-02-07T19:22:53.614Z,87.93
2019-02-07T19:25:21.987Z,96.17
2019-02-07T19:27:50.358Z,104.13
2019-02-07T19:30:22.223Z,158.47
2019-02-07T19:32:50.613Z,93.67
2019-02-07T19:35:19.058Z,91.90
2019-02-07T19:37:47.456Z,99.40
2019-02-07T19:40:18.043Z,79.60
2019-02-07T19:42:46.435Z,90.50
2019-02-07T19:45:17.849Z,95.50
2019-02-07T19:47:46.627Z,83.60
2019-02-07T19:50:17.637Z,99.20
2019-02-07T19:52:46.774Z,89.70
2019-02-07T19:55:17.584Z,91.63
2019-02-07T19:57:45.962Z,85.60
2019-02-07T20:00:23.522Z,83.47
2019-02-07T20:02:51.913Z,85.70
2019-02-07T20:05:20.420Z,96.02
2019-02-07T20:07:49.161Z,94.97
2019-02-07T20:10:25.673Z,91.17
2019-02-07T20:12:54.892Z,88.23
2019-02-07T20:15:28.549Z,96.03
2019-02-07T20:17:59.743Z,103.58
2019-02-07T20:20:27.410Z,99.13
2019-02-07T20:22:55.933Z,97.93
2019-02-07T20:25:24.698Z,87.97
2019-02-07T20:27:53.008Z,103.33
2019-02-07T20:30:29.914Z,87.90
2019-02-07T20:32:58.764Z,82.53
2019-02-07T20:35:27.160Z,103.63
2019-02-07T20:37:55.600Z,78.60
2019-02-07T20:40:28.605Z,81.50
2019-02-07T20:42:57.328Z,91.92
2019-02-07T20:45:26.642Z,92.87
2019-02-07T20:47:55.420Z,90.73
2019-02-07T20:50:30.228Z,89.80
2019-02-07T20:52:59.025Z,93.63
2019-02-07T20:55:27.588Z,96.07
2019-02-07T20:57:56.534Z,89.75
2019-02-07T21:00:33.309Z,138.07
2019-02-07T21:03:02.185Z,93.17
2019-02-07T21:05:31.840Z,91.53
2019-02-07T21:08:00.681Z,81.47
2019-02-07T21:10:32.181Z,107.73
2019-02-07T21:13:00.946Z,89.50
2019-02-07T21:15:29.882Z,85.07
2019-02-07T21:17:58.253Z,87.42
2019-02-07T21:20:28.941Z,88.70
2019-02-07T21:22:58.461Z,93.47
2019-02-07T21:25:30.335Z,92.27
2019-02-07T21:27:58.637Z,78.50
2019-02-07T21:30:31.936Z,75.10
2019-02-07T21:33:00.596Z,84.95
2019-02-07T21:35:29.954Z,88.20
2019-02-07T21:37:58.338Z,117.13
2019-02-07T21:40:29.135Z,121.57
2019-02-07T21:42:59.694Z,90.63
2019-02-07T21:45:28.985Z,94.13
2019-02-07T21:47:59.126Z,89.10
2019-02-07T21:50:29.749Z,77.37
2019-02-07T21:52:58.219Z,76.07
2019-02-07T21:55:28.984Z,101.50
2019-02-07T21:57:57.733Z,96.55
2019-02-07T22:00:32.401Z,87.83
2019-02-07T22:03:00.865Z,86.35
2019-02-07T22:05:29.352Z,97.87
2019-02-07T22:07:57.724Z,87.30
2019-02-07T22:10:26.261Z,87.43
2019-02-07T22:12:54.903Z,96.47
2019-02-07T22:15:25.208Z,106.30
2019-02-07T22:17:54.004Z,81.63
2019-02-07T22:20:27.242Z,105.63
2019-02-07T22:22:57.786Z,96.40
2019-02-07T22:25:26.628Z,93.93
2019-02-07T22:27:55.045Z,101.07
2019-02-07T22:30:29.288Z,94.27
2019-02-07T22:32:58.311Z,84.73
2019-02-07T22:35:27.011Z,111.30
2019-02-07T22:37:55.575Z,87.82
2019-02-07T22:40:25.614Z,98.92
2019-02-07T22:42:54.313Z,112.77
2019-02-07T22:45:25.706Z,89.27
2019-02-07T22:47:54.170Z,86.57
2019-02-07T22:50:27.939Z,91.70
2019-02-07T22:52:57.353Z,93.83
2019-02-07T22:55:25.890Z,92.53
2019-02-07T22:57:54.260Z,94.50
2019-02-07T23:00:44.615Z,85.00
2019-02-07T23:03:17.944Z,90.17
2019-02-07T23:05:46.794Z,95.60
2019-02-07T23:08:15.385Z,97.65
2019-02-07T23:10:44.142Z,88.03
2019-02-07T23:13:12.830Z,95.23
2019-02-07T23:15:41.895Z,102.30
2019-02-07T23:18:10.289Z,92.95
2019-02-07T23:20:38.661Z,96.30
2019-02-07T23:23:11.452Z,84.37
2019-02-07T23:25:40.778Z,93.77
2019-02-07T23:28:09.633Z,98.67
2019-02-07T23:30:38.107Z,110.63
2019-02-07T23:33:07.113Z,88.30
2019-02-07T23:35:35.416Z,103.83
2019-02-07T23:38:05.424Z,95.03
2019-02-07T23:40:33.824Z,88.13
2019-02-07T23:43:02.403Z,91.70
2019-02-07T23:45:30.759Z,92.60
2019-02-07T23:47:59.436Z,95.17
2019-02-07T23:50:27.878Z,96.50
2019-02-07T23:52:56.275Z,105.13
2019-02-07T23:55:24.909Z,102.75
2019-02-07T23:57:53.199Z,98.97
